ADDS METAR Data INFO
IDs: Format: Raw Decoded Include TAF

Data at: 0303 UTC 17 Jan 2018

K4A9 170255Z AUTO 10SM OVC070 M07/M13 A3049 RMK AO2
K4A9 170235Z AUTO A3050 RMK AO2 PWINO
K4A9 170215Z AUTO 10SM OVC090 M07/M12 A3049 RMK AO2
K4A9 170155Z AUTO 10SM SCT080 OVC090 M07/M12 A3048 RMK AO2
K4A9 170135Z AUTO 10SM SCT034 OVC080 M07/M12 A3048 RMK AO2
K4A9 170115Z AUTO 10SM SCT034 SCT060 OVC080 M06/M11 A3049 RMK AO2
K4A9 170055Z AUTO 10SM SCT060 BKN070 OVC080 M06/M11 A3047 RMK AO2
K4A9 170035Z AUTO 10SM SCT018 SCT033 OVC070 M06/M10 A3046 RMK AO2
K4A9 170015Z AUTO 10SM -SN SCT020 BKN034 OVC050 M06/M10 A3046 RMK AO2
K4A9 162355Z AUTO 4SM -SN BKN020 BKN036 OVC065 M06/M10 A3046 RMK AO2
K4A9 162335Z AUTO 10SM -SN OVC065 M06/M10 A3046 RMK AO2
K4A9 162315Z AUTO 5SM -SN SCT016 BKN065 OVC100 M06/M10 A3045 RMK AO2
K4A9 162255Z AUTO 4SM -SN BKN016 BKN025 OVC065 M05/M10 A3045 RMK AO2
K4A9 162235Z AUTO 00000KT 7SM BKN016 OVC034 M05/M08 A3045 RMK AO2
K4A9 162215Z AUTO 00000KT 10SM BKN016 OVC033 M05/M08 A3044 RMK AO2
K4A9 162155Z AUTO 00000KT 10SM BKN016 OVC031 M04/M08 A3044 RMK AO2
K4A9 162135Z AUTO 00000KT 10SM OVC014 M04/M08 A3043 RMK AO2
K4A9 162115Z AUTO 00000KT 7SM OVC014 M03/M07 A3043 RMK AO2
K4A9 162055Z AUTO 00000KT 5SM -SN BKN014 BKN023 OVC050 M03/M07 A3042 RMK AO2
K4A9 162035Z AUTO 00000KT 5SM -SN SCT024 BKN037 OVC050 M03/M07 A3042 RMK AO2
K4A9 162015Z AUTO 00000KT 2 1/2SM -SN OVC022 M03/M07 A3042 RMK AO2
K4A9 161955Z AUTO 00000KT 3SM -SN OVC020 M03/M07 A3041 RMK AO2
K4A9 161935Z AUTO 00000KT 7SM -SN OVC018 M02/M07 A3041 RMK AO2
K4A9 161915Z AUTO 00000KT 10SM OVC018 M02/M07 A3040 RMK AO2
K4A9 161855Z AUTO 00000KT 10SM OVC018 M02/M07 A3041 RMK AO2
K4A9 161835Z AUTO 00000KT 10SM OVC018 M01/M06 A3040 RMK AO2
K4A9 161815Z AUTO 10SM BKN020 OVC060 00/M05 A3040 RMK AO2
K4A9 161755Z AUTO 10SM SCT020 BKN060 OVC075 00/M05 A3041 RMK AO2
K4A9 161735Z AUTO 10SM SCT060 OVC080 01/M04 A3041 RMK AO2
K4A9 161715Z AUTO 10SM SCT045 OVC090 02/M03 A3041 RMK AO2
K4A9 161655Z AUTO 10SM BKN045 OVC090 02/M03 A3042 RMK AO2
K4A9 161635Z AUTO 10SM BKN043 BKN050 OVC100 02/M03 A3043 RMK AO2
K4A9 161615Z AUTO 10SM BKN045 OVC110 01/M02 A3044 RMK AO2
K4A9 161555Z AUTO 10SM SCT043 SCT120 01/M03 A3044 RMK AO2
K4A9 161535Z AUTO 10SM BKN120 01/M02 A3043 RMK AO2
K4A9 161515Z AUTO 10SM BKN110 00/M03 A3043 RMK AO2
K4A9 161455Z AUTO 10SM BKN110 00/M03 A3043 RMK AO2
K4A9 161435Z AUTO 10SM SCT015 BKN100 00/M04 A3043 RMK AO2
K4A9 161415Z AUTO 10SM SCT100 M01/M04 A3043 RMK AO2
K4A9 161355Z AUTO 10SM SCT100 M02/M05 A3041 RMK AO2
K4A9 161335Z AUTO 00000KT 10SM CLR M03/M05 A3041 RMK AO2
K4A9 161315Z AUTO 10SM SCT060 M05/M07 A3041 RMK AO2
K4A9 161255Z AUTO 00000KT 10SM SCT060 M04/M05 A3041 RMK AO2
K4A9 161235Z AUTO 10SM BKN060 M04/M06 A3041 RMK AO2
K4A9 161215Z AUTO 00000KT 10SM SCT060 M05/M07 A3040 RMK AO2
K4A9 161155Z AUTO 10SM CLR M05/M06 A3038 RMK AO2
K4A9 161135Z AUTO 00000KT 10SM CLR M05/M07 A3038 RMK AO2
K4A9 161115Z AUTO 00000KT 10SM CLR M03/M05 A3036 RMK AO2
K4A9 161055Z AUTO 10SM CLR M05/M06 A3036 RMK AO2
K4A9 161035Z AUTO 10SM CLR M05/M06 A3036 RMK AO2
K4A9 161015Z AUTO 10SM CLR M04/M06 A3036 RMK AO2
K4A9 160955Z AUTO 10SM CLR M05/M06 A3036 RMK AO2
K4A9 160935Z AUTO 10SM CLR M05/M06 A3033 RMK AO2
K4A9 160915Z AUTO 10SM CLR M05/M06 A3034 RMK AO2
K4A9 160855Z AUTO 10SM CLR M05/M06 A3035 RMK AO2
K4A9 160835Z AUTO 10SM CLR M05/M06 A3035 RMK AO2
K4A9 160815Z AUTO 10SM CLR M04/M06 A3035 RMK AO2
K4A9 160755Z AUTO 10SM CLR M05/M06 A3035 RMK AO2
K4A9 160735Z AUTO 10SM CLR M03/M05 A3035 RMK AO2
K4A9 160715Z AUTO 10SM CLR M05/M06 A3035 RMK AO2
K4A9 160655Z AUTO 10SM CLR M03/M05 A3035 RMK AO2
K4A9 160640Z AUTO 10SM CLR M04/M06 A3036 RMK AO2
K4A9 160615Z AUTO 10SM CLR M04/M06 A3036 RMK AO2
K4A9 160555Z AUTO 10SM CLR M03/M05 A3036 RMK AO2
K4A9 160535Z AUTO 00000KT 10SM CLR M03/M05 A3037 RMK AO2
K4A9 160515Z AUTO 00000KT 10SM CLR M03/M05 A3038 RMK AO2
K4A9 160455Z AUTO 00000KT 10SM CLR M03/M06 A3039 RMK AO2
K4A9 160435Z AUTO 00000KT 10SM CLR M03/M06 A3039 RMK AO2
K4A9 160415Z AUTO 10SM CLR M02/M05 A3039 RMK AO2
K4A9 160355Z AUTO 10SM CLR M02/M05 A3038 RMK AO2
K4A9 160335Z AUTO 10SM CLR M02/M05 A3038 RMK AO2
K4A9 160315Z AUTO 10SM CLR M02/M05 A3038 RMK AO2
K4A9 160255Z AUTO 10SM CLR M02/M05 A3037 RMK AO2
K4A9 160235Z AUTO 00000KT 10SM CLR M02/M05 A3037 RMK AO2
K4A9 160215Z AUTO 00000KT 10SM CLR M01/M05 A3037 RMK AO2
K4A9 160155Z AUTO 00000KT 10SM CLR M01/M05 A3036 RMK AO2
K4A9 160135Z AUTO 00000KT 10SM CLR M01/M05 A3036 RMK AO2
K4A9 160115Z AUTO 00000KT 10SM CLR M01/M05 A3035 RMK AO2
K4A9 160055Z AUTO 00000KT 10SM CLR 00/M05 A3035 RMK AO2
K4A9 160035Z AUTO 00000KT 10SM CLR 00/M05 A3035 RMK AO2
K4A9 160015Z AUTO 00000KT 10SM CLR 01/M05 A3036 RMK AO2
K4A9 152355Z AUTO 00000KT 10SM CLR 02/M06 A3036 RMK AO2
K4A9 152335Z AUTO 00000KT 10SM CLR 04/M07 A3036 RMK AO2
K4A9 152315Z AUTO 00000KT 10SM CLR 05/M07 A3035 RMK AO2
K4A9 152255Z AUTO 00000KT 10SM CLR 07/M08 A3035 RMK AO2
K4A9 152235Z AUTO 00000KT 10SM CLR 07/M08 A3035 RMK AO2
K4A9 152215Z AUTO 00000KT 10SM CLR 08/M07 A3034 RMK AO2
K4A9 152155Z AUTO 00000KT 10SM CLR 08/M08 A3034 RMK AO2
K4A9 152135Z AUTO 00000KT 10SM CLR 08/M08 A3034 RMK AO2
K4A9 152115Z AUTO 00000KT 10SM CLR 08/M07 A3034 RMK AO2
K4A9 152055Z AUTO 00000KT 10SM CLR 08/M08 A3034 RMK AO2
K4A9 152035Z AUTO 00000KT 10SM CLR 08/M07 A3034 RMK AO2
K4A9 152015Z AUTO 00000KT 10SM CLR 08/M07 A3035 RMK AO2
K4A9 151955Z AUTO 00000KT 10SM CLR 08/M07 A3035 RMK AO2
K4A9 151935Z AUTO 00000KT 10SM CLR 07/M07 A3036 RMK AO2
K4A9 151915Z AUTO 00000KT 10SM CLR 07/M08 A3036 RMK AO2
K4A9 151855Z AUTO 00000KT 10SM CLR 07/M08 A3037 RMK AO2
K4A9 151835Z AUTO 00000KT 10SM CLR 07/M08 A3038 RMK AO2
K4A9 151815Z AUTO 00000KT 10SM CLR 06/M08 A3039 RMK AO2
K4A9 151755Z AUTO 00000KT 10SM CLR 06/M07 A3041 RMK AO2
K4A9 151735Z AUTO 00000KT 10SM CLR 06/M08 A3041 RMK AO2
K4A9 151715Z AUTO 00000KT 10SM CLR 05/M10 A3042 RMK AO2
K4A9 151655Z AUTO 00000KT 10SM CLR 04/M11 A3043 RMK AO2
K4A9 151635Z AUTO 00000KT 10SM CLR 03/M11 A3044 RMK AO2
K4A9 151615Z AUTO 00000KT 10SM CLR 03/M11 A3044 RMK AO2
K4A9 151555Z AUTO 00000KT 10SM CLR 03/M11 A3045 RMK AO2
K4A9 151535Z AUTO 10SM CLR 02/M11 A3045 RMK AO2
K4A9 151515Z AUTO 00000KT 10SM CLR 01/M11 A3045 RMK AO2